createdAt,value
2023-01-13T00:00:32.921Z,0.00
2023-01-13T00:01:32.818Z,0.00
2023-01-13T00:02:32.921Z,0.00
2023-01-13T00:03:32.789Z,0.00
2023-01-13T00:04:32.815Z,0.00
2023-01-13T00:05:32.767Z,0.00
2023-01-13T00:06:32.786Z,0.00
2023-01-13T00:07:32.754Z,0.00
2023-01-13T00:08:32.742Z,0.00
2023-01-13T00:09:32.728Z,0.00
2023-01-13T00:10:32.711Z,0.00
2023-01-13T00:11:32.702Z,0.00
2023-01-13T00:12:32.689Z,0.00
2023-01-13T00:13:32.678Z,0.00
2023-01-13T00:14:32.678Z,0.00
2023-01-13T00:15:32.659Z,0.00
2023-01-13T00:16:32.645Z,0.00
2023-01-13T00:17:32.632Z,0.00
2023-01-13T00:18:32.630Z,0.00
2023-01-13T00:19:32.612Z,0.00
2023-01-13T00:20:32.601Z,0.00
2023-01-13T00:21:32.599Z,0.00
2023-01-13T00:22:32.603Z,0.00
2023-01-13T00:23:32.564Z,0.00
2023-01-13T00:24:32.554Z,0.00
2023-01-13T00:25:32.557Z,0.00
2023-01-13T00:26:32.532Z,0.00
2023-01-13T00:27:32.525Z,0.00
2023-01-13T00:28:32.517Z,0.00
2023-01-13T00:29:32.500Z,0.00
2023-01-13T00:30:32.487Z,0.00
2023-01-13T00:31:32.532Z,0.00
2023-01-13T00:32:32.464Z,0.00
2023-01-13T00:33:32.454Z,0.00
2023-01-13T00:34:32.442Z,0.00
2023-01-13T00:35:32.431Z,0.00
2023-01-13T00:36:32.436Z,0.00
2023-01-13T00:37:32.410Z,0.00
2023-01-13T00:38:32.432Z,0.00
2023-01-13T00:39:32.386Z,0.00
2023-01-13T00:40:32.376Z,0.00
2023-01-13T00:41:32.369Z,0.00
2023-01-13T00:42:32.355Z,0.00
2023-01-13T00:43:32.346Z,0.00
2023-01-13T00:44:32.345Z,0.00
2023-01-13T00:45:32.325Z,0.00
2023-01-13T00:46:32.346Z,0.00
2023-01-13T00:47:32.295Z,0.00
2023-01-13T00:48:32.287Z,0.00
2023-01-13T00:49:32.286Z,0.00
2023-01-13T00:50:32.267Z,0.00
2023-01-13T00:51:32.252Z,0.00
2023-01-13T00:52:32.245Z,0.00
2023-01-13T00:53:32.228Z,0.00
2023-01-13T00:54:32.252Z,0.00
2023-01-13T00:55:32.204Z,0.00
2023-01-13T00:56:40.305Z,0.00
2023-01-13T00:57:32.193Z,0.00
2023-01-13T00:58:32.175Z,0.00
2023-01-13T00:59:32.173Z,0.00
2023-01-13T01:00:32.264Z,0.00
2023-01-13T01:01:32.337Z,0.00
2023-01-13T01:02:32.160Z,0.00
2023-01-13T01:03:32.120Z,0.00
2023-01-13T01:04:32.117Z,0.00
2023-01-13T01:05:32.101Z,0.00
2023-01-13T01:06:32.091Z,0.00
2023-01-13T01:07:32.086Z,0.00
2023-01-13T01:08:32.064Z,0.00
2023-01-13T01:09:32.053Z,0.00
2023-01-13T01:10:32.089Z,0.00
2023-01-13T01:11:32.034Z,0.00
2023-01-13T01:12:32.017Z,0.00
2023-01-13T01:13:32.005Z,0.00
2023-01-13T01:14:33.990Z,0.00
2023-01-13T01:15:31.981Z,0.00
2023-01-13T01:16:32.119Z,0.00
2023-01-13T01:17:31.969Z,0.00
2023-01-13T01:18:31.949Z,0.00
2023-01-13T01:19:31.938Z,0.00
2023-01-13T01:20:31.927Z,0.00
2023-01-13T01:21:31.913Z,0.00
2023-01-13T01:22:31.916Z,0.00
2023-01-13T01:23:31.890Z,0.00
2023-01-13T01:24:31.882Z,0.00
2023-01-13T01:25:31.868Z,0.00
2023-01-13T01:26:31.936Z,0.00
2023-01-13T01:27:31.846Z,0.00
2023-01-13T01:28:31.841Z,0.00
2023-01-13T01:29:31.838Z,0.00
2023-01-13T01:30:31.818Z,0.00
2023-01-13T01:31:31.882Z,0.00
2023-01-13T01:32:31.795Z,0.00
2023-01-13T01:33:31.785Z,0.00
2023-01-13T01:34:31.769Z,0.00
2023-01-13T01:35:31.757Z,0.00
2023-01-13T01:36:31.769Z,0.00
2023-01-13T01:37:31.736Z,0.00
2023-01-13T01:38:31.725Z,0.00
2023-01-13T01:39:31.715Z,0.00
2023-01-13T01:40:31.709Z,0.00
2023-01-13T01:41:31.728Z,0.00
2023-01-13T01:42:31.704Z,0.00
2023-01-13T01:43:31.680Z,0.00
2023-01-13T01:44:31.665Z,0.00
2023-01-13T01:45:31.654Z,0.00
2023-01-13T01:46:31.695Z,0.00
2023-01-13T01:47:31.627Z,0.00
2023-01-13T01:48:31.617Z,0.00
2023-01-13T01:49:31.606Z,0.00
2023-01-13T01:50:31.593Z,0.00
2023-01-13T01:51:31.588Z,0.00
2023-01-13T01:52:31.571Z,0.00
2023-01-13T01:53:31.562Z,0.00
2023-01-13T01:54:31.560Z,0.00
2023-01-13T01:55:31.540Z,0.00
2023-01-13T01:56:31.526Z,0.00
2023-01-13T01:57:31.512Z,0.00
2023-01-13T01:58:31.528Z,0.00
2023-01-13T01:59:31.497Z,0.00
2023-01-13T02:00:31.504Z,0.00
2023-01-13T02:01:31.670Z,0.00
2023-01-13T02:02:31.544Z,0.00
2023-01-13T02:03:31.447Z,0.00
2023-01-13T02:04:31.437Z,0.00
2023-01-13T02:05:31.425Z,0.00
2023-01-13T02:06:31.413Z,0.00
2023-01-13T02:07:31.409Z,0.00
2023-01-13T02:08:31.406Z,0.00
2023-01-13T02:09:31.405Z,0.00
2023-01-13T02:10:31.375Z,0.00
2023-01-13T02:11:31.357Z,0.00
2023-01-13T02:12:31.350Z,0.00
2023-01-13T02:13:31.332Z,0.00
2023-01-13T02:14:31.345Z,0.00
2023-01-13T02:15:31.317Z,0.00
2023-01-13T02:16:31.362Z,0.00
2023-01-13T02:17:31.288Z,0.00
2023-01-13T02:18:31.297Z,0.00
2023-01-13T02:19:31.274Z,0.00
2023-01-13T02:20:31.256Z,0.00
2023-01-13T02:21:31.244Z,0.00
2023-01-13T02:22:31.232Z,0.00
2023-01-13T02:23:31.224Z,0.00
2023-01-13T02:24:31.216Z,0.00
2023-01-13T02:25:31.199Z,0.00
2023-01-13T02:26:31.202Z,0.00
2023-01-13T02:27:31.180Z,0.00
2023-01-13T02:28:31.173Z,0.00
2023-01-13T02:29:31.177Z,0.00
2023-01-13T02:30:31.178Z,0.00
2023-01-13T02:31:31.231Z,0.00
2023-01-13T02:32:31.123Z,0.00
2023-01-13T02:33:31.112Z,0.00
2023-01-13T02:34:31.109Z,0.00
2023-01-13T02:35:31.090Z,0.00
2023-01-13T02:36:31.087Z,0.00
2023-01-13T02:37:31.066Z,0.00
2023-01-13T02:38:31.062Z,0.00
2023-01-13T02:39:31.049Z,0.00
2023-01-13T02:40:31.059Z,0.00
2023-01-13T02:41:31.032Z,0.00
2023-01-13T02:42:31.014Z,0.00
2023-01-13T02:43:31.005Z,0.00
2023-01-13T02:44:30.998Z,0.00
2023-01-13T02:45:31.022Z,0.00
2023-01-13T02:46:31.001Z,0.00
2023-01-13T02:47:30.960Z,0.00
2023-01-13T02:48:30.943Z,0.00
2023-01-13T02:49:30.939Z,0.00
2023-01-13T02:50:30.922Z,0.00
2023-01-13T02:51:30.911Z,0.00
2023-01-13T02:52:30.920Z,0.00
2023-01-13T02:53:30.888Z,0.00
2023-01-13T02:54:30.884Z,0.00
2023-01-13T02:55:30.880Z,0.00
2023-01-13T02:56:30.853Z,0.00
2023-01-13T02:57:30.849Z,0.00
2023-01-13T02:58:30.841Z,0.00
2023-01-13T02:59:30.811Z,0.00
2023-01-13T03:00:30.795Z,0.00
2023-01-13T03:01:30.924Z,0.00
2023-01-13T03:02:30.845Z,0.00
2023-01-13T03:03:30.790Z,0.00
2023-01-13T03:04:30.749Z,0.00
2023-01-13T03:05:30.736Z,0.00
2023-01-13T03:06:30.733Z,0.00
2023-01-13T03:07:30.714Z,0.00
2023-01-13T03:08:30.711Z,0.00
2023-01-13T03:09:30.696Z,0.00
2023-01-13T03:10:30.709Z,0.00
2023-01-13T03:11:30.668Z,0.00
2023-01-13T03:12:30.661Z,0.00
2023-01-13T03:13:30.652Z,0.00
2023-01-13T03:14:30.641Z,0.00
2023-01-13T03:15:30.647Z,0.00
2023-01-13T03:16:30.665Z,0.00
2023-01-13T03:17:30.608Z,0.00
2023-01-13T03:18:30.624Z,0.00
2023-01-13T03:19:30.594Z,0.00
2023-01-13T03:20:30.567Z,0.00
2023-01-13T03:21:30.563Z,0.00
2023-01-13T03:22:30.552Z,0.00
2023-01-13T03:23:30.539Z,0.00
2023-01-13T03:24:30.536Z,0.00
2023-01-13T03:25:30.512Z,0.00
2023-01-13T03:26:30.502Z,0.00
2023-01-13T03:27:30.501Z,0.00
2023-01-13T03:28:30.481Z,0.00
2023-01-13T03:29:30.476Z,0.00
2023-01-13T03:30:30.479Z,0.00
2023-01-13T03:31:30.448Z,0.00
2023-01-13T03:32:30.435Z,0.00
2023-01-13T03:33:30.430Z,0.00
2023-01-13T03:34:31.249Z,0.00
2023-01-13T03:35:30.407Z,0.00
2023-01-13T03:36:30.422Z,0.00
2023-01-13T03:37:30.380Z,0.00
2023-01-13T03:38:30.365Z,0.00
2023-01-13T03:39:30.385Z,0.00
2023-01-13T03:40:30.352Z,0.00
2023-01-13T03:41:30.341Z,0.00
2023-01-13T03:42:30.342Z,0.00
2023-01-13T03:43:30.327Z,0.00
2023-01-13T03:44:32.571Z,0.00
2023-01-13T03:45:30.304Z,0.00
2023-01-13T03:46:30.290Z,0.00
2023-01-13T03:47:30.280Z,0.00
2023-01-13T03:48:30.287Z,0.00
2023-01-13T03:49:30.255Z,0.00
2023-01-13T03:50:30.259Z,0.00
2023-01-13T03:51:30.227Z,0.00
2023-01-13T03:52:30.222Z,0.00
2023-01-13T03:53:30.200Z,0.00
2023-01-13T03:54:30.207Z,0.00
2023-01-13T03:55:30.178Z,0.00
2023-01-13T03:56:30.179Z,0.00
2023-01-13T03:57:30.158Z,0.00
2023-01-13T03:58:30.143Z,0.00
2023-01-13T03:59:30.140Z,0.00
2023-01-13T04:00:30.126Z,0.00
2023-01-13T04:01:30.294Z,0.00
2023-01-13T04:02:30.107Z,0.00
2023-01-13T04:03:30.145Z,0.00
2023-01-13T04:04:30.083Z,0.00
2023-01-13T04:05:30.084Z,0.00
2023-01-13T04:06:30.093Z,0.00
2023-01-13T04:07:30.056Z,0.00
2023-01-13T04:08:30.034Z,0.00
2023-01-13T04:09:30.037Z,0.00
2023-01-13T04:10:30.016Z,0.00
2023-01-13T04:11:30.004Z,0.00
2023-01-13T04:12:30.042Z,0.00
2023-01-13T04:13:30.025Z,0.00
2023-01-13T04:14:29.986Z,0.00
2023-01-13T04:15:30.051Z,0.00
2023-01-13T04:16:29.943Z,0.00
2023-01-13T04:17:29.942Z,0.00
2023-01-13T04:18:29.928Z,0.00
2023-01-13T04:19:29.937Z,0.00
2023-01-13T04:20:29.896Z,0.00
2023-01-13T04:21:29.896Z,0.00
2023-01-13T04:22:29.906Z,0.00
2023-01-13T04:23:29.880Z,0.00
2023-01-13T04:24:29.862Z,0.00
2023-01-13T04:25:29.852Z,0.00
2023-01-13T04:26:29.842Z,0.00
2023-01-13T04:27:29.824Z,0.00
2023-01-13T04:28:29.821Z,0.00
2023-01-13T04:29:29.801Z,0.00
2023-01-13T04:30:29.809Z,0.00
2023-01-13T04:31:29.784Z,0.00
2023-01-13T04:32:29.769Z,0.00
2023-01-13T04:33:29.769Z,0.00
2023-01-13T04:34:29.752Z,0.00
2023-01-13T04:35:29.743Z,0.00
2023-01-13T04:36:29.733Z,0.00
2023-01-13T04:37:29.719Z,0.00
2023-01-13T04:38:29.722Z,0.00
2023-01-13T04:39:29.690Z,0.00
2023-01-13T04:40:29.685Z,0.00
2023-01-13T04:41:29.682Z,0.00
2023-01-13T04:42:29.665Z,0.00
2023-01-13T04:43:29.654Z,0.00
2023-01-13T04:44:29.639Z,0.00
2023-01-13T04:45:29.632Z,0.00
2023-01-13T04:46:29.754Z,0.00
2023-01-13T04:47:29.609Z,0.00
2023-01-13T04:48:29.595Z,0.00
2023-01-13T04:49:29.582Z,0.00
2023-01-13T04:50:29.586Z,0.00
2023-01-13T04:51:29.563Z,0.00
2023-01-13T04:52:29.552Z,0.00
2023-01-13T04:53:29.555Z,0.00
2023-01-13T04:54:29.607Z,0.00
2023-01-13T04:55:29.522Z,0.00
2023-01-13T04:56:29.504Z,0.00
2023-01-13T04:57:29.501Z,0.00
2023-01-13T04:58:29.485Z,0.00
2023-01-13T04:59:29.478Z,0.00
2023-01-13T05:00:29.454Z,0.00
2023-01-13T05:01:29.573Z,0.00
2023-01-13T05:02:29.452Z,0.00
2023-01-13T05:03:29.420Z,0.00
2023-01-13T05:04:29.440Z,0.00
2023-01-13T05:05:29.422Z,0.00
2023-01-13T05:06:29.409Z,0.00
2023-01-13T05:07:29.389Z,0.00
2023-01-13T05:08:29.382Z,0.00
2023-01-13T05:09:29.359Z,0.00
2023-01-13T05:10:29.389Z,0.00
2023-01-13T05:11:29.339Z,0.00
2023-01-13T05:12:29.341Z,0.00
2023-01-13T05:13:29.322Z,0.00
2023-01-13T05:14:29.303Z,0.00
2023-01-13T05:15:29.311Z,0.00
2023-01-13T05:16:29.300Z,0.00
2023-01-13T05:17:29.284Z,0.00
2023-01-13T05:18:29.266Z,0.00
2023-01-13T05:19:29.258Z,0.00
2023-01-13T05:20:29.239Z,0.00
2023-01-13T05:21:29.231Z,0.00
2023-01-13T05:22:29.229Z,0.00
2023-01-13T05:23:29.222Z,0.00
2023-01-13T05:24:29.201Z,0.00
2023-01-13T05:25:29.178Z,0.00
2023-01-13T05:26:29.188Z,0.00
2023-01-13T05:27:29.155Z,0.00
2023-01-13T05:28:29.155Z,0.00
2023-01-13T05:29:29.140Z,0.00
2023-01-13T05:30:29.129Z,0.00
2023-01-13T05:31:29.178Z,0.00
2023-01-13T05:32:29.103Z,0.00
2023-01-13T05:33:29.093Z,0.00
2023-01-13T05:34:29.083Z,0.00
2023-01-13T05:35:29.083Z,0.00
2023-01-13T05:36:29.060Z,0.00
2023-01-13T05:37:29.046Z,0.00
2023-01-13T05:38:29.038Z,0.00
2023-01-13T05:39:29.021Z,0.00
2023-01-13T05:40:29.011Z,0.00
2023-01-13T05:41:28.998Z,0.00
2023-01-13T05:42:29.019Z,0.00
2023-01-13T05:43:28.976Z,0.00
2023-01-13T05:44:28.972Z,0.00
2023-01-13T05:45:28.954Z,0.00
2023-01-13T05:46:29.045Z,0.00
2023-01-13T05:47:28.938Z,0.00
2023-01-13T05:48:28.929Z,0.00
2023-01-13T05:49:28.912Z,0.00
2023-01-13T05:50:28.903Z,0.00
2023-01-13T05:51:28.888Z,0.00
2023-01-13T05:52:28.884Z,0.00
2023-01-13T05:53:28.873Z,0.00
2023-01-13T05:54:28.857Z,0.00
2023-01-13T05:55:28.842Z,0.00
2023-01-13T05:56:28.847Z,0.00
2023-01-13T05:57:28.819Z,0.00
2023-01-13T05:58:28.837Z,0.00
2023-01-13T05:59:28.803Z,0.00
2023-01-13T06:00:28.788Z,0.00
2023-01-13T06:01:28.844Z,0.00
2023-01-13T06:02:28.774Z,0.00
2023-01-13T06:03:28.757Z,0.00
2023-01-13T06:04:28.844Z,0.00
2023-01-13T06:05:28.729Z,0.00
2023-01-13T06:06:28.725Z,0.00
2023-01-13T06:07:28.714Z,0.00
2023-01-13T06:08:28.703Z,0.00
2023-01-13T06:09:28.687Z,0.00
2023-01-13T06:10:28.679Z,0.00
2023-01-13T06:11:28.678Z,0.00
2023-01-13T06:12:28.659Z,0.00
2023-01-13T06:13:28.656Z,0.00
2023-01-13T06:14:28.657Z,0.00
2023-01-13T06:15:28.629Z,0.00
2023-01-13T06:16:28.634Z,0.00
2023-01-13T06:17:28.600Z,0.00
2023-01-13T06:18:28.608Z,0.00
2023-01-13T06:19:28.582Z,0.00
2023-01-13T06:20:28.563Z,0.00
2023-01-13T06:21:28.560Z,0.00
2023-01-13T06:22:28.540Z,0.00
2023-01-13T06:23:28.535Z,0.00
2023-01-13T06:24:28.518Z,0.00
2023-01-13T06:25:28.524Z,0.00
2023-01-13T06:26:28.508Z,0.00
2023-01-13T06:27:28.484Z,0.00
2023-01-13T06:28:28.498Z,0.00
2023-01-13T06:29:28.474Z,0.00
2023-01-13T06:30:28.487Z,0.00
2023-01-13T06:31:28.485Z,0.00
2023-01-13T06:32:28.428Z,0.00
2023-01-13T06:33:28.417Z,0.00
2023-01-13T06:34:28.619Z,0.00
2023-01-13T06:35:28.407Z,0.00
2023-01-13T06:36:28.394Z,0.00
2023-01-13T06:37:28.378Z,0.00
2023-01-13T06:38:28.360Z,0.00
2023-01-13T06:39:28.359Z,0.00
2023-01-13T06:40:28.356Z,0.00
2023-01-13T06:41:28.328Z,0.00
2023-01-13T06:42:28.323Z,0.00
2023-01-13T06:43:28.316Z,0.00
2023-01-13T06:44:28.304Z,0.00
2023-01-13T06:45:28.280Z,0.00
2023-01-13T06:46:28.343Z,0.00
2023-01-13T06:47:28.267Z,0.00
2023-01-13T06:48:28.255Z,4.00
2023-01-13T06:49:28.250Z,4.00
2023-01-13T06:50:28.233Z,4.00
2023-01-13T06:51:28.233Z,0.00
2023-01-13T06:52:28.202Z,4.00
2023-01-13T06:53:28.198Z,4.00
2023-01-13T06:54:28.178Z,4.00
2023-01-13T06:55:28.173Z,8.00
2023-01-13T06:56:28.172Z,4.00
2023-01-13T06:57:28.199Z,8.00
2023-01-13T06:58:30.148Z,8.00
2023-01-13T06:59:28.129Z,4.00
2023-01-13T07:00:28.119Z,8.00
2023-01-13T07:01:28.192Z,8.00
2023-01-13T07:02:28.135Z,8.00
2023-01-13T07:03:28.115Z,12.00
2023-01-13T07:04:28.065Z,12.00
2023-01-13T07:05:28.081Z,12.00
2023-01-13T07:06:28.042Z,12.00
2023-01-13T07:07:28.033Z,8.00
2023-01-13T07:08:30.032Z,12.00
2023-01-13T07:09:28.009Z,8.00
2023-01-13T07:10:28.007Z,8.00
2023-01-13T07:11:27.992Z,8.00
2023-01-13T07:12:27.984Z,8.00
2023-01-13T07:13:27.978Z,12.00
2023-01-13T07:14:27.960Z,20.00
2023-01-13T07:15:27.948Z,24.00
2023-01-13T07:16:28.003Z,24.00
2023-01-13T07:17:29.921Z,28.00
2023-01-13T07:18:27.981Z,24.00
2023-01-13T07:19:27.899Z,24.00
2023-01-13T07:20:27.893Z,24.00
2023-01-13T07:21:29.874Z,24.00
2023-01-13T07:22:27.870Z,28.00
2023-01-13T07:23:27.857Z,28.00
2023-01-13T07:24:27.848Z,32.00
2023-01-13T07:25:27.845Z,32.00
2023-01-13T07:26:27.820Z,44.00
2023-01-13T07:27:27.821Z,52.00
2023-01-13T07:28:27.805Z,56.00
2023-01-13T07:29:27.785Z,52.00
2023-01-13T07:30:29.783Z,56.00
2023-01-13T07:31:27.834Z,56.00
2023-01-13T07:32:27.761Z,48.00
2023-01-13T07:33:27.762Z,40.00
2023-01-13T07:34:27.755Z,40.00
2023-01-13T07:35:27.730Z,40.00
2023-01-13T07:36:27.704Z,44.00
2023-01-13T07:37:27.697Z,36.00
2023-01-13T07:38:27.683Z,32.00
2023-01-13T07:39:27.685Z,32.00
2023-01-13T07:40:27.697Z,32.00
2023-01-13T07:41:27.663Z,40.00
2023-01-13T07:42:27.637Z,40.00
2023-01-13T07:43:27.662Z,44.00
2023-01-13T07:44:27.616Z,40.00
2023-01-13T07:45:27.651Z,44.00
2023-01-13T07:46:27.594Z,56.00
2023-01-13T07:47:27.582Z,64.00
2023-01-13T07:48:27.588Z,68.00
2023-01-13T07:49:27.559Z,68.00
2023-01-13T07:50:27.628Z,76.00
2023-01-13T07:51:27.553Z,88.00
2023-01-13T07:52:27.531Z,92.00
2023-01-13T07:53:27.513Z,92.00
2023-01-13T07:54:39.753Z,104.00
2023-01-13T07:55:27.497Z,112.00
2023-01-13T07:56:27.479Z,124.00
2023-01-13T07:57:27.467Z,128.00
2023-01-13T07:58:27.458Z,136.00
2023-01-13T07:59:27.452Z,148.00
2023-01-13T08:00:27.472Z,160.00
2023-01-13T08:01:27.517Z,160.00
2023-01-13T08:02:27.649Z,164.00
2023-01-13T08:03:27.417Z,168.00
2023-01-13T08:04:27.393Z,172.00
2023-01-13T08:05:27.386Z,188.00
2023-01-13T08:06:27.393Z,212.00
2023-01-13T08:07:27.357Z,240.00
2023-01-13T08:08:27.344Z,284.00
2023-01-13T08:09:27.340Z,336.00
2023-01-13T08:10:27.334Z,372.00
2023-01-13T08:11:27.429Z,412.00
2023-01-13T08:12:27.309Z,460.00
2023-01-13T08:13:27.297Z,512.00
2023-01-13T08:14:27.284Z,540.00
2023-01-13T08:15:27.393Z,540.00
2023-01-13T08:16:27.366Z,548.00
2023-01-13T08:17:27.251Z,584.00
2023-01-13T08:18:27.235Z,600.00
2023-01-13T08:19:27.242Z,560.00
2023-01-13T08:20:27.216Z,512.00
2023-01-13T08:21:27.207Z,484.00
2023-01-13T08:22:27.224Z,464.00
2023-01-13T08:23:27.183Z,436.00
2023-01-13T08:24:27.178Z,396.00
2023-01-13T08:25:27.170Z,352.00
2023-01-13T08:26:27.156Z,300.00
2023-01-13T08:27:27.135Z,240.00
2023-01-13T08:28:27.116Z,208.00
2023-01-13T08:29:27.122Z,200.00
2023-01-13T08:30:27.138Z,216.00
2023-01-13T08:31:27.085Z,240.00
2023-01-13T08:32:27.079Z,280.00
2023-01-13T08:33:27.077Z,300.00
2023-01-13T08:34:27.050Z,308.00
2023-01-13T08:35:27.055Z,320.00
2023-01-13T08:36:27.025Z,336.00
2023-01-13T08:37:27.024Z,344.00
2023-01-13T08:38:27.125Z,344.00
2023-01-13T08:39:27.003Z,348.00
2023-01-13T08:40:26.992Z,356.00
2023-01-13T08:41:26.976Z,368.00
2023-01-13T08:42:26.969Z,396.00
2023-01-13T08:43:26.969Z,448.00
2023-01-13T08:44:26.948Z,500.00
2023-01-13T08:45:26.925Z,528.00
2023-01-13T08:46:27.046Z,528.00
2023-01-13T08:47:26.915Z,516.00
2023-01-13T08:48:27.825Z,508.00
2023-01-13T08:49:26.878Z,508.00
2023-01-13T08:50:26.871Z,504.00
2023-01-13T08:51:26.864Z,488.00
2023-01-13T08:52:26.844Z,460.00
2023-01-13T08:53:26.836Z,420.00
2023-01-13T08:54:26.857Z,392.00
2023-01-13T08:55:26.844Z,368.00
2023-01-13T08:56:26.807Z,360.00
2023-01-13T08:57:26.929Z,348.00
2023-01-13T08:58:26.794Z,340.00
2023-01-13T08:59:26.780Z,324.00
2023-01-13T09:00:26.764Z,300.00
2023-01-13T09:01:26.857Z,280.00
2023-01-13T09:02:26.811Z,268.00
2023-01-13T09:03:26.738Z,260.00
2023-01-13T09:04:26.798Z,256.00
2023-01-13T09:05:26.696Z,256.00
2023-01-13T09:06:26.697Z,244.00
2023-01-13T09:07:26.677Z,224.00
2023-01-13T09:08:26.675Z,204.00
2023-01-13T09:09:26.662Z,192.00
2023-01-13T09:10:26.672Z,196.00
2023-01-13T09:11:26.642Z,200.00
2023-01-13T09:12:26.640Z,188.00
2023-01-13T09:13:26.616Z,164.00
2023-01-13T09:14:26.596Z,140.00
2023-01-13T09:15:26.631Z,136.00
2023-01-13T09:16:26.583Z,152.00
2023-01-13T09:17:26.576Z,172.00
2023-01-13T09:18:26.552Z,176.00
2023-01-13T09:19:26.546Z,180.00
2023-01-13T09:20:26.536Z,180.00
2023-01-13T09:21:26.527Z,180.00
2023-01-13T09:22:26.507Z,188.00
2023-01-13T09:23:26.504Z,204.00
2023-01-13T09:24:26.484Z,228.00
2023-01-13T09:25:26.479Z,268.00
2023-01-13T09:26:26.498Z,328.00
2023-01-13T09:27:26.507Z,432.00
2023-01-13T09:28:26.448Z,556.00
2023-01-13T09:29:26.431Z,652.00
2023-01-13T09:30:26.422Z,692.00
2023-01-13T09:31:26.453Z,644.00
2023-01-13T09:32:26.400Z,560.00
2023-01-13T09:33:26.383Z,492.00
2023-01-13T09:34:26.383Z,524.00
2023-01-13T09:35:26.364Z,624.00
2023-01-13T09:36:26.361Z,764.00
2023-01-13T09:37:26.349Z,944.00
2023-01-13T09:38:26.338Z,1184.00
2023-01-13T09:39:26.324Z,2064.00
2023-01-13T09:40:26.325Z,4268.00
2023-01-13T09:41:26.302Z,2580.00
2023-01-13T09:42:26.319Z,3288.00
2023-01-13T09:43:26.275Z,1848.00
2023-01-13T09:44:26.267Z,1348.00
2023-01-13T09:45:26.252Z,1088.00
2023-01-13T09:46:26.278Z,980.00
2023-01-13T09:47:26.225Z,908.00
2023-01-13T09:48:26.219Z,924.00
2023-01-13T09:49:26.226Z,952.00
2023-01-13T09:50:26.195Z,972.00
2023-01-13T09:51:26.203Z,972.00
2023-01-13T09:52:27.190Z,948.00
2023-01-13T09:53:26.163Z,892.00
2023-01-13T09:54:26.142Z,832.00
2023-01-13T09:55:26.145Z,776.00
2023-01-13T09:56:26.130Z,728.00
2023-01-13T09:57:26.117Z,752.00
2023-01-13T09:58:26.132Z,1080.00
2023-01-13T09:59:26.138Z,1848.00
2023-01-13T10:00:26.193Z,2640.00
2023-01-13T10:01:26.123Z,3352.00
2023-01-13T10:02:26.062Z,1372.00
2023-01-13T10:03:26.119Z,2260.00
2023-01-13T10:04:26.096Z,1096.00
2023-01-13T10:05:26.024Z,692.00
2023-01-13T10:06:26.011Z,1036.00
2023-01-13T10:07:26.008Z,744.00
2023-01-13T10:08:26.001Z,1100.00
2023-01-13T10:09:25.982Z,956.00
2023-01-13T10:10:25.964Z,848.00
2023-01-13T10:11:25.958Z,804.00
2023-01-13T10:12:25.948Z,816.00
2023-01-13T10:13:25.949Z,756.00
2023-01-13T10:14:25.944Z,772.00
2023-01-13T10:15:25.926Z,1392.00
2023-01-13T10:16:26.067Z,1100.00
2023-01-13T10:17:25.902Z,740.00
2023-01-13T10:18:25.879Z,912.00
2023-01-13T10:19:25.876Z,1528.00
2023-01-13T10:20:25.850Z,2636.00
2023-01-13T10:21:25.848Z,2456.00
2023-01-13T10:22:25.845Z,2760.00
2023-01-13T10:23:25.827Z,2156.00
2023-01-13T10:24:25.809Z,1228.00
2023-01-13T10:25:25.800Z,1448.00
2023-01-13T10:26:25.827Z,1976.00
2023-01-13T10:27:25.789Z,2148.00
2023-01-13T10:28:25.770Z,1436.00
2023-01-13T10:29:25.754Z,1328.00
2023-01-13T10:30:25.783Z,1200.00
2023-01-13T10:31:25.775Z,1060.00
2023-01-13T10:32:25.732Z,944.00
2023-01-13T10:33:27.836Z,928.00
2023-01-13T10:34:25.703Z,1024.00
2023-01-13T10:35:25.698Z,1144.00
2023-01-13T10:36:25.675Z,1196.00
2023-01-13T10:37:25.660Z,1184.00
2023-01-13T10:38:25.684Z,1164.00
2023-01-13T10:39:25.656Z,1148.00
2023-01-13T10:40:25.655Z,1080.00
2023-01-13T10:41:25.636Z,1024.00
2023-01-13T10:42:25.698Z,928.00
2023-01-13T10:43:25.607Z,892.00
2023-01-13T10:44:25.580Z,836.00
2023-01-13T10:45:25.621Z,784.00
2023-01-13T10:46:25.627Z,776.00
2023-01-13T10:47:25.552Z,804.00
2023-01-13T10:48:25.545Z,864.00
2023-01-13T10:49:25.538Z,1008.00
2023-01-13T10:50:25.520Z,1388.00
2023-01-13T10:51:25.511Z,1040.00
2023-01-13T10:52:25.610Z,980.00
2023-01-13T10:53:25.515Z,984.00
2023-01-13T10:54:25.494Z,1060.00
2023-01-13T10:55:25.455Z,992.00
2023-01-13T10:56:25.460Z,844.00
2023-01-13T10:57:25.432Z,712.00
2023-01-13T10:58:25.426Z,688.00
2023-01-13T10:59:25.416Z,728.00
2023-01-13T11:00:25.396Z,780.00
2023-01-13T11:01:25.454Z,884.00
2023-01-13T11:02:26.863Z,1168.00
2023-01-13T11:03:25.383Z,1448.00
2023-01-13T11:04:25.387Z,1536.00
2023-01-13T11:05:25.350Z,1656.00
2023-01-13T11:06:25.340Z,1732.00
2023-01-13T11:07:28.164Z,1740.00
2023-01-13T11:08:25.317Z,1680.00
2023-01-13T11:09:25.295Z,1576.00
2023-01-13T11:10:25.286Z,1440.00
2023-01-13T11:11:25.271Z,1452.00
2023-01-13T11:12:25.269Z,1588.00
2023-01-13T11:13:25.261Z,1632.00
2023-01-13T11:14:25.246Z,1820.00
2023-01-13T11:15:25.225Z,2104.00
2023-01-13T11:16:25.295Z,2496.00
2023-01-13T11:17:25.206Z,3080.00
2023-01-13T11:18:25.234Z,5372.00
2023-01-13T11:19:25.199Z,5264.00
2023-01-13T11:20:25.172Z,4800.00
2023-01-13T11:21:25.173Z,4036.00
2023-01-13T11:22:25.156Z,3220.00
2023-01-13T11:23:25.146Z,3116.00
2023-01-13T11:24:25.138Z,3476.00
2023-01-13T11:25:25.134Z,3512.00
2023-01-13T11:26:25.111Z,3524.00
2023-01-13T11:27:25.100Z,3524.00
2023-01-13T11:28:25.083Z,3420.00
2023-01-13T11:29:25.073Z,3312.00
2023-01-13T11:30:25.083Z,3216.00
2023-01-13T11:31:25.094Z,3156.00
2023-01-13T11:32:25.049Z,2972.00
2023-01-13T11:33:25.035Z,2992.00
2023-01-13T11:34:25.054Z,2976.00
2023-01-13T11:35:25.010Z,2996.00
2023-01-13T11:36:25.001Z,3176.00
2023-01-13T11:37:24.993Z,3068.00
2023-01-13T11:38:24.977Z,2932.00
2023-01-13T11:39:24.963Z,3272.00
2023-01-13T11:40:24.962Z,3544.00
2023-01-13T11:41:24.936Z,3544.00
2023-01-13T11:42:24.925Z,3624.00
2023-01-13T11:43:24.921Z,3632.00
2023-01-13T11:44:24.901Z,3724.00
2023-01-13T11:45:24.890Z,3892.00
2023-01-13T11:46:24.923Z,3956.00
2023-01-13T11:47:24.870Z,3960.00
2023-01-13T11:48:24.862Z,3500.00
2023-01-13T11:49:24.860Z,4024.00
2023-01-13T11:50:24.869Z,4044.00
2023-01-13T11:51:24.827Z,3872.00
2023-01-13T11:52:24.810Z,3952.00
2023-01-13T11:53:24.798Z,4064.00
2023-01-13T11:54:24.809Z,4280.00
2023-01-13T11:55:24.795Z,1212.00
2023-01-13T11:56:24.767Z,2872.00
2023-01-13T11:57:24.756Z,3980.00
2023-01-13T11:58:24.749Z,4092.00
2023-01-13T11:59:24.753Z,1292.00
2023-01-13T12:00:24.716Z,4372.00
2023-01-13T12:01:24.759Z,4060.00
2023-01-13T12:02:24.752Z,3276.00
2023-01-13T12:03:24.775Z,1180.00
2023-01-13T12:04:24.682Z,2020.00
2023-01-13T12:05:24.680Z,1328.00
2023-01-13T12:06:24.690Z,1004.00
2023-01-13T12:07:24.659Z,2008.00
2023-01-13T12:08:24.646Z,1736.00
2023-01-13T12:09:24.626Z,1900.00
2023-01-13T12:10:24.616Z,2632.00
2023-01-13T12:11:24.600Z,1080.00
2023-01-13T12:12:24.590Z,1008.00
2023-01-13T12:13:24.583Z,2608.00
2023-01-13T12:14:24.564Z,2576.00
2023-01-13T12:15:24.563Z,2496.00
2023-01-13T12:16:24.584Z,1912.00
2023-01-13T12:17:24.531Z,3144.00
2023-01-13T12:18:24.520Z,3072.00
2023-01-13T12:19:24.640Z,2848.00
2023-01-13T12:20:24.498Z,2528.00
2023-01-13T12:21:24.507Z,2108.00
2023-01-13T12:22:24.513Z,1912.00
2023-01-13T12:23:24.469Z,2064.00
2023-01-13T12:24:24.456Z,2028.00
2023-01-13T12:25:24.441Z,1768.00
2023-01-13T12:26:24.472Z,1648.00
2023-01-13T12:27:24.420Z,1824.00
2023-01-13T12:28:24.452Z,2192.00
2023-01-13T12:29:24.402Z,2348.00
2023-01-13T12:30:24.384Z,2436.00
2023-01-13T12:31:24.423Z,2588.00
2023-01-13T12:32:24.418Z,2672.00
2023-01-13T12:33:24.359Z,2700.00
2023-01-13T12:34:24.341Z,2668.00
2023-01-13T12:35:24.331Z,2644.00
2023-01-13T12:36:24.316Z,2604.00
2023-01-13T12:37:24.309Z,2552.00
2023-01-13T12:38:24.326Z,2580.00
2023-01-13T12:39:24.289Z,2456.00
2023-01-13T12:40:24.269Z,2304.00
2023-01-13T12:41:24.258Z,2440.00
2023-01-13T12:42:24.244Z,2504.00
2023-01-13T12:43:24.240Z,2580.00
2023-01-13T12:44:24.217Z,2640.00
2023-01-13T12:45:24.224Z,2116.00
2023-01-13T12:46:24.197Z,2928.00
2023-01-13T12:47:24.195Z,1568.00
2023-01-13T12:48:24.174Z,2900.00
2023-01-13T12:49:24.177Z,2484.00
2023-01-13T12:50:24.160Z,916.00
2023-01-13T12:51:24.158Z,2820.00